createdAt,value
2023-01-31T00:01:36.558Z,102393.63
2023-01-31T00:04:09.123Z,102389.97
2023-01-31T00:06:38.641Z,102395.31
2023-01-31T00:09:07.662Z,102399.97
2023-01-31T00:11:34.138Z,102390.34
2023-01-31T00:14:03.025Z,102382.44
2023-01-31T00:16:29.497Z,102373.53
2023-01-31T00:18:55.991Z,102378.69
2023-01-31T00:21:28.326Z,102372.34
2023-01-31T00:23:56.120Z,102363.50
2023-01-31T00:26:26.424Z,102371.66
2023-01-31T00:28:54.829Z,102361.06
2023-01-31T00:31:23.022Z,102349.78
2023-01-31T00:33:50.983Z,102337.50
2023-01-31T00:36:20.347Z,102340.41
2023-01-31T00:38:52.606Z,102330.34
2023-01-31T00:41:21.247Z,102327.09
2023-01-31T00:43:48.157Z,102316.69
2023-01-31T00:46:14.849Z,102309.59
2023-01-31T00:48:41.280Z,102309.75
2023-01-31T00:51:07.948Z,102303.69
2023-01-31T00:53:35.476Z,102308.16
2023-01-31T00:56:16.812Z,102304.53
2023-01-31T00:58:43.962Z,102301.88
2023-01-31T01:01:16.808Z,102301.72
2023-01-31T01:03:45.895Z,102292.88
2023-01-31T01:06:13.934Z,102296.53
2023-01-31T01:08:42.605Z,102291.81
2023-01-31T01:11:15.367Z,102282.47
2023-01-31T01:13:42.207Z,102275.94
2023-01-31T01:16:12.155Z,102271.56
2023-01-31T01:18:38.964Z,102275.94
2023-01-31T01:21:10.378Z,102273.88
2023-01-31T01:23:38.450Z,102284.44
2023-01-31T01:26:05.703Z,102279.78
2023-01-31T01:28:35.600Z,102293.16
2023-01-31T01:31:07.198Z,102293.28
2023-01-31T01:33:34.890Z,102284.44
2023-01-31T01:36:02.598Z,102296.78
2023-01-31T01:38:29.273Z,102306.63
2023-01-31T01:40:55.999Z,102303.13
2023-01-31T01:43:39.643Z,102304.94
2023-01-31T01:46:07.302Z,102316.72
2023-01-31T01:48:34.703Z,102312.72
2023-01-31T01:51:05.056Z,102315.41
2023-01-31T01:53:34.761Z,102311.50
2023-01-31T01:56:06.968Z,102308.00
2023-01-31T01:58:53.162Z,102300.94
2023-01-31T02:01:22.657Z,102307.25
2023-01-31T02:03:51.426Z,102304.47
2023-01-31T02:06:18.210Z,102308.47
2023-01-31T02:08:45.262Z,102313.94
2023-01-31T02:11:23.355Z,102315.88
2023-01-31T02:13:53.105Z,102309.00
2023-01-31T02:16:19.667Z,102304.72
2023-01-31T02:18:47.689Z,102308.38
2023-01-31T02:21:25.129Z,102297.81
2023-01-31T02:24:06.782Z,102297.25
2023-01-31T02:27:04.623Z,102292.75
2023-01-31T02:29:45.843Z,102284.59
2023-01-31T02:32:51.740Z,102280.84
2023-01-31T02:35:27.971Z,102280.09
2023-01-31T02:38:30.084Z,102281.31
2023-01-31T02:41:15.768Z,102277.66
2023-01-31T02:44:12.311Z,102284.50
2023-01-31T02:46:55.063Z,102274.06
2023-01-31T02:49:34.506Z,102277.44
2023-01-31T02:52:26.851Z,102271.03
2023-01-31T02:55:28.481Z,102277.06
2023-01-31T02:57:58.418Z,102268.97
2023-01-31T03:00:27.047Z,102274.66
2023-01-31T03:02:53.501Z,102270.19
2023-01-31T03:05:21.499Z,102276.22
2023-01-31T03:07:59.704Z,102263.63
2023-01-31T03:10:45.051Z,102255.59
2023-01-31T03:13:46.322Z,102258.03
2023-01-31T03:16:42.604Z,102258.88
2023-01-31T03:19:13.960Z,102246.75
2023-01-31T03:21:57.589Z,102248.59
2023-01-31T03:24:27.019Z,102241.28
2023-01-31T03:26:57.383Z,102243.72
2023-01-31T03:29:26.204Z,102225.41
2023-01-31T03:31:58.464Z,102228.06
2023-01-31T03:34:25.669Z,102225.41
2023-01-31T03:37:07.314Z,102226.25
2023-01-31T03:40:05.716Z,102230.75
2023-01-31T03:42:47.859Z,102221.28
2023-01-31T03:45:38.353Z,102216.91
2023-01-31T03:48:14.332Z,102213.00
2023-01-31T03:50:49.217Z,102215.66
2023-01-31T03:53:27.439Z,102201.38
2023-01-31T03:56:26.226Z,102200.41
2023-01-31T03:58:59.672Z,102199.56
2023-01-31T04:01:29.390Z,102199.31
2023-01-31T04:04:01.719Z,102199.91
2023-01-31T04:06:28.972Z,102193.44
2023-01-31T04:08:55.680Z,102192.34
2023-01-31T04:11:25.917Z,102194.88
2023-01-31T04:13:52.475Z,102191.97
2023-01-31T04:16:18.919Z,102198.00
2023-01-31T04:18:45.290Z,102207.59
2023-01-31T04:21:14.116Z,102195.09
2023-01-31T04:23:40.568Z,102194.13
2023-01-31T04:26:07.014Z,102193.03
2023-01-31T04:28:33.476Z,102174.19
2023-01-31T04:31:00.218Z,102189.72
2023-01-31T04:33:26.741Z,102176.38
2023-01-31T04:35:53.177Z,102171.72
2023-01-31T04:38:19.671Z,102167.13
2023-01-31T04:40:46.274Z,102175.13
2023-01-31T04:43:13.550Z,102164.44
2023-01-31T04:45:40.009Z,102171.38
2023-01-31T04:48:07.765Z,102161.63
2023-01-31T04:50:34.208Z,102162.47
2023-01-31T04:53:00.667Z,102165.16
2023-01-31T04:55:27.778Z,102173.66
2023-01-31T04:57:54.383Z,102167.97
2023-01-31T05:00:21.118Z,102169.75
2023-01-31T05:02:47.693Z,102160.50
2023-01-31T05:05:14.201Z,102159.75
2023-01-31T05:07:40.713Z,102156.69
2023-01-31T05:10:07.795Z,102162.50
2023-01-31T05:12:34.260Z,102157.63
2023-01-31T05:15:01.796Z,102151.88
2023-01-31T05:17:29.925Z,102147.25
2023-01-31T05:19:58.151Z,102142.66
2023-01-31T05:22:24.850Z,102141.53
2023-01-31T05:24:51.728Z,102145.19
2023-01-31T05:27:19.279Z,102147.47
2023-01-31T05:29:45.975Z,102151.00
2023-01-31T05:32:13.290Z,102153.38
2023-01-31T05:34:39.785Z,102159.97
2023-01-31T05:37:06.181Z,102153.78
2023-01-31T05:39:32.716Z,102150.00
2023-01-31T05:41:59.542Z,102133.72
2023-01-31T05:44:25.965Z,102125.41
2023-01-31T05:46:52.625Z,102123.88
2023-01-31T05:49:19.022Z,102135.25
2023-01-31T05:51:45.420Z,102135.25
2023-01-31T05:54:12.432Z,102130.38
2023-01-31T05:56:39.170Z,102117.97
2023-01-31T05:59:06.162Z,102115.78
2023-01-31T06:01:32.571Z,102114.16
2023-01-31T06:03:59.533Z,102110.59
2023-01-31T06:06:25.969Z,102104.00
2023-01-31T06:08:52.382Z,102111.91
2023-01-31T06:11:18.833Z,102111.25
2023-01-31T06:13:45.278Z,102105.59
2023-01-31T06:16:12.301Z,102104.47
2023-01-31T06:18:39.259Z,102107.75
2023-01-31T06:21:06.014Z,102107.75
2023-01-31T06:23:34.279Z,102109.44
2023-01-31T06:26:01.068Z,102104.19
2023-01-31T06:28:27.677Z,102100.16
2023-01-31T06:30:54.242Z,102093.78
2023-01-31T06:33:22.715Z,102083.22
2023-01-31T06:35:50.838Z,102074.63
2023-01-31T06:38:17.321Z,102068.88
2023-01-31T06:40:43.732Z,102066.91
2023-01-31T06:43:10.162Z,102069.31
2023-01-31T06:45:37.665Z,102061.16
2023-01-31T06:48:04.286Z,102063.53
2023-01-31T06:50:30.791Z,102073.94
2023-01-31T06:52:59.249Z,102065.91
2023-01-31T06:55:25.864Z,102069.44
2023-01-31T06:57:52.436Z,102053.94
2023-01-31T07:00:19.450Z,102064.97
2023-01-31T07:02:46.803Z,102068.59
2023-01-31T07:05:13.593Z,102061.16
2023-01-31T07:07:40.303Z,102069.44
2023-01-31T07:10:07.764Z,102073.81
2023-01-31T07:12:34.178Z,102065.50
2023-01-31T07:15:00.927Z,102061.25
2023-01-31T07:17:27.800Z,102063.81
2023-01-31T07:19:54.251Z,102054.66
2023-01-31T07:22:20.694Z,102053.13
2023-01-31T07:24:48.798Z,102056.63
2023-01-31T07:27:15.332Z,102045.34
2023-01-31T07:29:41.872Z,102046.91
2023-01-31T07:32:08.410Z,102041.44
2023-01-31T07:34:35.176Z,102031.63
2023-01-31T07:37:01.854Z,102043.00
2023-01-31T07:39:30.106Z,102037.09
2023-01-31T07:41:56.575Z,102040.91
2023-01-31T07:44:24.313Z,102024.13
2023-01-31T07:46:52.038Z,102023.88
2023-01-31T07:49:18.483Z,102012.34
2023-01-31T07:51:44.909Z,102014.16
2023-01-31T07:54:12.055Z,102010.19
2023-01-31T07:56:38.891Z,102018.88
2023-01-31T07:59:05.283Z,102022.69
2023-01-31T08:01:50.938Z,102017.88
2023-01-31T08:04:22.120Z,102017.34
2023-01-31T08:06:50.480Z,102010.47
2023-01-31T08:09:16.865Z,102010.59
2023-01-31T08:11:43.809Z,102001.47
2023-01-31T08:14:10.286Z,101999.75
2023-01-31T08:16:37.010Z,101987.66
2023-01-31T08:19:04.065Z,102001.19
2023-01-31T08:21:30.635Z,101989.53
2023-01-31T08:23:57.133Z,101991.78
2023-01-31T08:26:23.613Z,102005.44
2023-01-31T08:28:51.784Z,101996.88
2023-01-31T08:31:22.098Z,102009.13
2023-01-31T08:33:51.336Z,101980.41
2023-01-31T08:36:23.506Z,101991.09
2023-01-31T08:38:50.867Z,101979.28
2023-01-31T08:41:19.164Z,101986.19
2023-01-31T08:43:56.501Z,102002.38
2023-01-31T08:46:30.619Z,102005.34
2023-01-31T08:48:57.612Z,102000.97
2023-01-31T08:51:24.194Z,101995.19
2023-01-31T08:53:51.326Z,102007.31
2023-01-31T08:56:19.331Z,101980.56
2023-01-31T08:58:45.764Z,101976.34
2023-01-31T09:01:15.209Z,101974.81
2023-01-31T09:03:43.894Z,101961.56
2023-01-31T09:06:15.329Z,101956.78
2023-01-31T09:08:42.152Z,101952.72
2023-01-31T09:11:09.047Z,101943.69
2023-01-31T09:13:35.598Z,101951.84
2023-01-31T09:16:10.725Z,101956.34
2023-01-31T09:18:39.040Z,101959.31
2023-01-31T09:21:11.243Z,101953.28
2023-01-31T09:23:41.386Z,101966.09
2023-01-31T09:26:09.117Z,101951.84
2023-01-31T09:28:35.533Z,101948.06
2023-01-31T09:31:06.548Z,101938.06
2023-01-31T09:33:34.292Z,101940.31
2023-01-31T09:36:04.059Z,101940.44
2023-01-31T09:38:31.068Z,101936.09
2023-01-31T09:41:00.536Z,101929.72
2023-01-31T09:43:34.204Z,101939.03
2023-01-31T09:46:04.477Z,101936.50
2023-01-31T09:48:35.336Z,101949.44
2023-01-31T09:51:03.818Z,101949.28
2023-01-31T09:53:37.098Z,101939.72
2023-01-31T09:56:18.503Z,101935.63
2023-01-31T09:59:12.611Z,101945.22
2023-01-31T10:01:44.995Z,101931.56
2023-01-31T10:04:39.051Z,101943.63
2023-01-31T10:07:27.246Z,101946.06
2023-01-31T10:10:00.419Z,101943.06
2023-01-31T10:12:40.759Z,101936.88
2023-01-31T10:15:16.562Z,101931.81
2023-01-31T10:17:49.805Z,101941.22
2023-01-31T10:20:34.386Z,101936.16
2023-01-31T10:23:19.983Z,101935.72
2023-01-31T10:25:46.373Z,101923.03
2023-01-31T10:28:22.479Z,101931.34
2023-01-31T10:31:11.526Z,101925.56
2023-01-31T10:33:41.037Z,101930.25
2023-01-31T10:36:40.633Z,101930.09
2023-01-31T10:39:30.993Z,101927.56
2023-01-31T10:42:15.385Z,101935.16
2023-01-31T10:44:53.512Z,101943.59
2023-01-31T10:47:24.420Z,101943.19
2023-01-31T10:49:51.427Z,101939.22
2023-01-31T10:52:40.824Z,101947.09
2023-01-31T10:55:25.591Z,101955.13
2023-01-31T10:57:53.151Z,101950.63
2023-01-31T11:00:24.515Z,101944.69
2023-01-31T11:02:50.973Z,101952.28
2023-01-31T11:05:21.071Z,101955.81
2023-01-31T11:07:47.799Z,101959.66
2023-01-31T11:10:24.147Z,101952.13
2023-01-31T11:13:04.404Z,101959.34
2023-01-31T11:15:42.863Z,101953.84
2023-01-31T11:18:17.122Z,101956.38
2023-01-31T11:20:47.734Z,101952.56
2023-01-31T11:23:17.777Z,101944.66
2023-01-31T11:25:50.118Z,101944.22
2023-01-31T11:28:22.035Z,101940.25
2023-01-31T11:30:51.584Z,101945.09
2023-01-31T11:33:56.278Z,101937.63
2023-01-31T11:36:24.197Z,101935.06
2023-01-31T11:38:50.820Z,101940.81
2023-01-31T11:41:35.585Z,101936.56
2023-01-31T11:44:12.744Z,101930.19
2023-01-31T11:46:50.312Z,101921.88
2023-01-31T11:49:29.577Z,101907.47
2023-01-31T11:52:02.728Z,101900.25
2023-01-31T11:54:32.701Z,101889.41
2023-01-31T11:57:01.741Z,101889.25
2023-01-31T11:59:30.307Z,101893.88
2023-01-31T12:01:59.923Z,101894.50
2023-01-31T12:04:42.563Z,101885.25
2023-01-31T12:07:41.456Z,101878.88
2023-01-31T12:10:27.764Z,101870.84
2023-01-31T12:13:12.297Z,101870.63
2023-01-31T12:15:52.431Z,101889.22
2023-01-31T12:18:29.222Z,101875.75
2023-01-31T12:21:24.115Z,101878.13
2023-01-31T12:24:07.359Z,101871.25
2023-01-31T12:26:54.941Z,101864.44
2023-01-31T12:29:33.272Z,101868.19
2023-01-31T12:32:37.361Z,101858.44
2023-01-31T12:35:40.911Z,101857.38
2023-01-31T12:38:18.657Z,101851.47
2023-01-31T12:40:53.807Z,101843.66
2023-01-31T12:43:40.050Z,101850.16
2023-01-31T12:46:16.404Z,101846.34
2023-01-31T12:48:47.648Z,101843.47
2023-01-31T12:51:22.945Z,101829.63
2023-01-31T12:54:10.909Z,101837.63
2023-01-31T12:56:46.765Z,101834.28
2023-01-31T12:59:44.372Z,101826.19
2023-01-31T13:02:25.524Z,101843.28
2023-01-31T13:05:09.285Z,101830.88
2023-01-31T13:07:45.778Z,101839.91
2023-01-31T13:10:35.498Z,101820.19
2023-01-31T13:13:02.863Z,101837.63
2023-01-31T13:15:43.022Z,101826.56
2023-01-31T13:18:13.010Z,101826.94
2023-01-31T13:20:59.067Z,101831.06
2023-01-31T13:23:51.865Z,101841.06
2023-01-31T13:26:22.101Z,101844.41
2023-01-31T13:28:55.957Z,101855.69
2023-01-31T13:31:33.879Z,101834.94
2023-01-31T13:34:10.040Z,101835.13
2023-01-31T13:36:50.857Z,101854.63
2023-01-31T13:40:02.109Z,101840.22
2023-01-31T13:42:29.613Z,101856.94
2023-01-31T13:45:02.474Z,101859.19
2023-01-31T13:47:44.397Z,101855.34
2023-01-31T13:50:30.584Z,101872.44
2023-01-31T13:53:00.190Z,101874.00
2023-01-31T13:55:38.421Z,101887.56
2023-01-31T13:58:08.547Z,101885.03
2023-01-31T14:00:39.780Z,101884.38
2023-01-31T14:03:19.288Z,101882.28
2023-01-31T14:05:48.819Z,101880.66
2023-01-31T14:08:27.487Z,101888.72
2023-01-31T14:10:56.447Z,101905.50
2023-01-31T14:13:31.603Z,101905.50
2023-01-31T14:15:58.598Z,101887.94
2023-01-31T14:18:43.352Z,101900.97
2023-01-31T14:21:31.935Z,101907.56
2023-01-31T14:24:01.029Z,101906.88
2023-01-31T14:26:42.453Z,101899.59
2023-01-31T14:29:16.476Z,101905.50
2023-01-31T14:31:45.160Z,101908.06
2023-01-31T14:34:26.529Z,101916.69
2023-01-31T14:37:07.720Z,101920.53
2023-01-31T14:39:56.069Z,101921.72
2023-01-31T14:42:31.351Z,101917.38
2023-01-31T14:45:09.549Z,101917.53
2023-01-31T14:47:45.941Z,101924.41
2023-01-31T14:50:39.564Z,101933.00
2023-01-31T14:53:26.362Z,101943.13
2023-01-31T14:56:32.464Z,101923.03
2023-01-31T14:58:59.001Z,101932.16
2023-01-31T15:01:34.976Z,101934.19
2023-01-31T15:04:03.606Z,101936.88
2023-01-31T15:06:40.703Z,101925.06
2023-01-31T15:09:16.165Z,101924.34
2023-01-31T15:11:47.249Z,101933.50
2023-01-31T15:14:49.060Z,101924.16
2023-01-31T15:17:36.446Z,101937.34
2023-01-31T15:20:12.030Z,101945.47
2023-01-31T15:22:41.474Z,101956.22
2023-01-31T15:25:34.250Z,101951.81
2023-01-31T15:28:02.541Z,101950.84
2023-01-31T15:30:33.931Z,101967.78
2023-01-31T15:33:18.545Z,101957.91
2023-01-31T15:35:53.070Z,101954.59
2023-01-31T15:38:26.867Z,101965.78
2023-01-31T15:41:06.533Z,101955.03
2023-01-31T15:43:33.168Z,101966.94
2023-01-31T15:46:21.785Z,101962.97
2023-01-31T15:48:48.687Z,101974.00
2023-01-31T15:51:16.202Z,101978.75
2023-01-31T15:53:42.986Z,101982.13
2023-01-31T15:56:20.819Z,101978.88
2023-01-31T15:58:50.690Z,101997.25
2023-01-31T16:01:17.733Z,101991.25
2023-01-31T16:03:54.486Z,102003.75
2023-01-31T16:06:47.292Z,102005.94
2023-01-31T16:09:27.050Z,102014.47
2023-01-31T16:11:54.132Z,102010.22
2023-01-31T16:14:22.617Z,102015.34
2023-01-31T16:16:52.965Z,102013.78
2023-01-31T16:19:32.044Z,102015.53
2023-01-31T16:21:59.243Z,102004.25
2023-01-31T16:24:25.937Z,102017.00
2023-01-31T16:27:07.959Z,102009.63
2023-01-31T16:29:52.525Z,102003.72
2023-01-31T16:32:37.152Z,102004.78
2023-01-31T16:35:05.513Z,101999.81
2023-01-31T16:37:32.091Z,102004.47
2023-01-31T16:40:06.883Z,102010.81
2023-01-31T16:42:36.011Z,102001.25
2023-01-31T16:45:03.135Z,102003.94
2023-01-31T16:47:46.247Z,102001.25
2023-01-31T16:50:32.838Z,102009.31
2023-01-31T16:53:29.209Z,102007.81
2023-01-31T16:56:13.828Z,102004.41
2023-01-31T16:58:50.997Z,102011.63
2023-01-31T17:01:22.103Z,102014.00
2023-01-31T17:04:09.320Z,102018.66
2023-01-31T17:06:36.632Z,102020.22
2023-01-31T17:09:06.266Z,102014.41
2023-01-31T17:11:42.730Z,102013.41
2023-01-31T17:14:10.160Z,102018.22
2023-01-31T17:16:36.677Z,102018.66
2023-01-31T17:19:03.214Z,102022.34
2023-01-31T17:21:34.854Z,102027.00
2023-01-31T17:24:02.859Z,102023.06
2023-01-31T17:26:31.037Z,102022.09
2023-01-31T17:29:01.982Z,102021.25
2023-01-31T17:31:30.006Z,102022.91
2023-01-31T17:33:57.010Z,102016.88
2023-01-31T17:36:23.789Z,102015.88
2023-01-31T17:38:51.905Z,102019.56
2023-01-31T17:41:20.886Z,102030.41
2023-01-31T17:43:47.346Z,102025.38
2023-01-31T17:46:16.101Z,102031.84
2023-01-31T17:48:42.879Z,102041.56
2023-01-31T17:51:10.068Z,102045.09
2023-01-31T17:53:44.127Z,102041.72
2023-01-31T17:56:15.964Z,102042.72
2023-01-31T17:58:42.528Z,102047.53
2023-01-31T18:01:10.728Z,102051.06
2023-01-31T18:03:37.263Z,102047.25
2023-01-31T18:06:05.247Z,102043.00
2023-01-31T18:08:31.687Z,102044.00
2023-01-31T18:11:10.613Z,102033.41
2023-01-31T18:13:38.108Z,102032.03
2023-01-31T18:16:12.477Z,102030.06
2023-01-31T18:18:46.243Z,102035.84
2023-01-31T18:21:15.381Z,102054.16
2023-01-31T18:23:42.336Z,102046.97
2023-01-31T18:26:10.899Z,102042.28
2023-01-31T18:28:37.553Z,102052.34
2023-01-31T18:31:10.703Z,102044.56
2023-01-31T18:33:37.723Z,102048.41
2023-01-31T18:36:05.856Z,102037.38
2023-01-31T18:38:32.816Z,102040.66
2023-01-31T18:41:00.182Z,102048.41
2023-01-31T18:43:29.435Z,102058.25
2023-01-31T18:45:55.874Z,102047.00
2023-01-31T18:48:22.363Z,102051.81
2023-01-31T18:50:48.772Z,102046.28
2023-01-31T18:53:15.151Z,102042.94
2023-01-31T18:55:41.558Z,102050.53
2023-01-31T18:58:08.034Z,102040.69
2023-01-31T19:00:34.477Z,102044.09
2023-01-31T19:03:00.896Z,102045.06
2023-01-31T19:05:27.424Z,102041.53
2023-01-31T19:07:53.937Z,102047.44
2023-01-31T19:10:20.357Z,102049.84
2023-01-31T19:12:47.584Z,102039.41
2023-01-31T19:15:14.019Z,102040.53
2023-01-31T19:17:40.470Z,102041.81
2023-01-31T19:20:07.503Z,102042.13
2023-01-31T19:22:33.951Z,102040.28
2023-01-31T19:25:00.425Z,102034.38
2023-01-31T19:27:27.124Z,102035.78
2023-01-31T19:29:53.584Z,102034.78
2023-01-31T19:32:20.032Z,102033.78
2023-01-31T19:34:46.624Z,102030.97
2023-01-31T19:37:13.039Z,102041.13
2023-01-31T19:39:39.428Z,102040.28
2023-01-31T19:42:05.842Z,102042.13
2023-01-31T19:44:32.277Z,102029.56
2023-01-31T19:46:58.665Z,102029.16
2023-01-31T19:49:25.102Z,102034.91
2023-01-31T19:51:51.561Z,102033.25
2023-01-31T19:54:19.168Z,102027.59
2023-01-31T19:56:45.639Z,102028.31
2023-01-31T19:59:12.539Z,102029.00
2023-01-31T20:01:39.029Z,102032.69
2023-01-31T20:04:05.447Z,102030.44
2023-01-31T20:06:34.015Z,102031.00
2023-01-31T20:09:04.657Z,102026.75
2023-01-31T20:11:31.616Z,102025.63
2023-01-31T20:13:58.174Z,102021.84
2023-01-31T20:16:24.908Z,102017.75
2023-01-31T20:18:51.502Z,102019.16
2023-01-31T20:21:19.927Z,102015.22
2023-01-31T20:23:46.538Z,102028.47
2023-01-31T20:26:13.982Z,102014.66
2023-01-31T20:28:41.389Z,102011.00
2023-01-31T20:31:11.702Z,101989.69
2023-01-31T20:33:38.174Z,101997.19
2023-01-31T20:36:05.685Z,102007.31
2023-01-31T20:38:32.596Z,102003.81
2023-01-31T20:41:00.098Z,101990.84
2023-01-31T20:43:27.106Z,101994.53
2023-01-31T20:45:53.628Z,101993.25
2023-01-31T20:48:20.349Z,101991.25
2023-01-31T20:50:55.260Z,101992.97
2023-01-31T20:53:21.801Z,102002.84
2023-01-31T20:56:02.542Z,101997.47
2023-01-31T20:58:31.785Z,101997.31
2023-01-31T21:00:59.997Z,101991.97
2023-01-31T21:03:27.522Z,101991.97
2023-01-31T21:05:54.062Z,101993.53
2023-01-31T21:08:21.246Z,101988.19
2023-01-31T21:10:55.801Z,101992.66
2023-01-31T21:13:23.234Z,101975.75
2023-01-31T21:15:54.463Z,101987.31
2023-01-31T21:18:22.855Z,101984.78
2023-01-31T21:20:49.363Z,101977.75
2023-01-31T21:23:16.141Z,101983.78
2023-01-31T21:25:42.765Z,101977.75
2023-01-31T21:28:09.546Z,101978.44
2023-01-31T21:30:36.582Z,101966.75
2023-01-31T21:33:03.461Z,101972.25
2023-01-31T21:35:30.235Z,101966.19
2023-01-31T21:37:56.692Z,101962.53
2023-01-31T21:40:23.531Z,101959.28
2023-01-31T21:42:51.298Z,101958.16
2023-01-31T21:45:17.697Z,101960.84
2023-01-31T21:48:02.798Z,101972.09
2023-01-31T21:50:29.241Z,101977.47
2023-01-31T21:52:55.696Z,101964.63
2023-01-31T21:55:22.446Z,101962.69
2023-01-31T21:57:48.844Z,101953.66
2023-01-31T22:00:15.550Z,101949.00
2023-01-31T22:02:42.070Z,101948.19
2023-01-31T22:05:08.848Z,101939.19
2023-01-31T22:07:35.264Z,101947.31
2023-01-31T22:10:01.673Z,101940.69
2023-01-31T22:12:28.089Z,101944.94
2023-01-31T22:14:54.493Z,101950.97
2023-01-31T22:17:20.885Z,101954.38
2023-01-31T22:19:47.267Z,101949.16
2023-01-31T22:22:13.655Z,101955.38
2023-01-31T22:24:40.047Z,101959.88
2023-01-31T22:27:06.456Z,101957.75
2023-01-31T22:29:32.852Z,101953.53
2023-01-31T22:31:59.259Z,101935.66
2023-01-31T22:34:25.686Z,101937.47
2023-01-31T22:36:52.118Z,101939.75
2023-01-31T22:39:18.779Z,101937.75
2023-01-31T22:41:45.236Z,101940.56
2023-01-31T22:44:11.758Z,101952.56
2023-01-31T22:46:38.270Z,101944.53
2023-01-31T22:49:04.698Z,101944.38
2023-01-31T22:51:31.108Z,101945.22
2023-01-31T22:53:58.285Z,101938.59
2023-01-31T22:56:27.748Z,101938.31
2023-01-31T22:58:56.029Z,101941.13
2023-01-31T23:01:24.307Z,101942.53
2023-01-31T23:03:51.041Z,101927.63
2023-01-31T23:06:17.957Z,101927.19
2023-01-31T23:08:44.771Z,101931.72
2023-01-31T23:11:14.535Z,101931.28
2023-01-31T23:13:41.933Z,101916.06
2023-01-31T23:16:10.386Z,101913.94
2023-01-31T23:18:36.930Z,101917.72
2023-01-31T23:21:14.776Z,101919.41
2023-01-31T23:23:42.764Z,101912.09
2023-01-31T23:26:09.783Z,101911.81
2023-01-31T23:28:36.525Z,101919.84
2023-01-31T23:31:03.453Z,101906.75
2023-01-31T23:33:30.005Z,101905.63
2023-01-31T23:35:56.461Z,101891.13
2023-01-31T23:38:23.051Z,101890.56
2023-01-31T23:40:53.948Z,101875.91
2023-01-31T23:43:21.455Z,101879.13
2023-01-31T23:45:48.287Z,101880.97
2023-01-31T23:48:14.845Z,101881.81
2023-01-31T23:50:41.319Z,101887.75
2023-01-31T23:53:07.871Z,101881.13
2023-01-31T23:55:34.323Z,101871.00
2023-01-31T23:58:00.841Z,101867.88
